createdAt,value
2023-02-09T00:01:27.377Z,39.88
2023-02-09T00:03:54.500Z,35.10
2023-02-09T00:06:23.685Z,37.08
2023-02-09T00:08:50.719Z,34.35
2023-02-09T00:11:46.832Z,39.70
2023-02-09T00:14:15.968Z,36.50
2023-02-09T00:16:43.027Z,35.28
2023-02-09T00:19:10.681Z,41.35
2023-02-09T00:21:37.529Z,35.63
2023-02-09T00:24:05.021Z,35.00
2023-02-09T00:26:31.985Z,36.08
2023-02-09T00:28:59.066Z,34.15
2023-02-09T00:31:26.197Z,35.70
2023-02-09T00:33:52.933Z,34.42
2023-02-09T00:36:19.950Z,30.27
2023-02-09T00:38:48.275Z,32.55
2023-02-09T00:41:16.564Z,37.05
2023-02-09T00:43:43.348Z,33.15
2023-02-09T00:46:10.215Z,31.73
2023-02-09T00:48:36.951Z,32.78
2023-02-09T00:51:03.799Z,42.75
2023-02-09T00:53:30.451Z,32.65
2023-02-09T00:55:57.145Z,33.38
2023-02-09T00:58:23.834Z,26.85
2023-02-09T01:00:50.713Z,35.03
2023-02-09T01:03:17.523Z,32.35
2023-02-09T01:05:44.283Z,35.97
2023-02-09T01:08:11.625Z,32.00
2023-02-09T01:10:39.466Z,28.83
2023-02-09T01:13:06.228Z,27.23
2023-02-09T01:15:32.921Z,31.85
2023-02-09T01:17:59.793Z,30.52
2023-02-09T01:20:27.413Z,29.05
2023-02-09T01:22:54.103Z,35.10
2023-02-09T01:25:20.898Z,29.38
2023-02-09T01:27:48.211Z,29.55
2023-02-09T01:30:15.521Z,26.35
2023-02-09T01:32:42.374Z,27.33
2023-02-09T01:35:09.600Z,26.50
2023-02-09T01:37:37.607Z,29.50
2023-02-09T01:40:05.896Z,22.20
2023-02-09T01:42:32.638Z,32.83
2023-02-09T01:45:18.944Z,30.75
2023-02-09T01:47:51.863Z,31.05
2023-02-09T01:50:18.964Z,26.15
2023-02-09T01:52:48.729Z,32.40
2023-02-09T01:55:20.465Z,28.80
2023-02-09T01:57:59.384Z,24.60
2023-02-09T02:00:27.012Z,25.65
2023-02-09T02:02:57.569Z,26.98
2023-02-09T02:05:25.260Z,28.88
2023-02-09T02:08:10.410Z,22.38
2023-02-09T02:10:37.407Z,22.15
2023-02-09T02:13:04.136Z,19.08
2023-02-09T02:15:58.767Z,17.58
2023-02-09T02:18:47.650Z,17.65
2023-02-09T02:21:48.631Z,17.50
2023-02-09T02:24:52.804Z,16.58
2023-02-09T02:27:53.802Z,17.42
2023-02-09T02:30:57.658Z,17.08
2023-02-09T02:33:31.794Z,16.27
2023-02-09T02:36:08.136Z,16.80
2023-02-09T02:38:41.055Z,20.65
2023-02-09T02:41:57.174Z,17.10
2023-02-09T02:44:27.570Z,15.07
2023-02-09T02:47:00.019Z,17.70
2023-02-09T02:49:49.550Z,17.13
2023-02-09T02:52:16.290Z,20.45
2023-02-09T02:54:49.855Z,16.25
2023-02-09T02:57:26.361Z,16.60
2023-02-09T03:00:08.613Z,16.77
2023-02-09T03:02:41.028Z,17.88
2023-02-09T03:05:09.079Z,17.65
2023-02-09T03:07:35.808Z,17.40
2023-02-09T03:10:03.436Z,16.48
2023-02-09T03:12:48.819Z,19.13
2023-02-09T03:15:32.210Z,16.27
2023-02-09T03:18:12.052Z,16.00
2023-02-09T03:20:56.779Z,18.77
2023-02-09T03:23:53.850Z,15.50
2023-02-09T03:26:30.661Z,17.73
2023-02-09T03:28:58.742Z,20.02
2023-02-09T03:31:27.305Z,14.75
2023-02-09T03:33:57.162Z,16.17
2023-02-09T03:36:24.912Z,14.23
2023-02-09T03:38:51.574Z,16.65
2023-02-09T03:41:18.216Z,16.42
2023-02-09T03:44:03.599Z,15.73
2023-02-09T03:46:30.315Z,14.32
2023-02-09T03:48:56.959Z,11.00
2023-02-09T03:51:23.901Z,15.32
2023-02-09T03:53:50.612Z,15.02
2023-02-09T03:56:17.294Z,13.05
2023-02-09T03:58:44.220Z,14.10
2023-02-09T04:01:11.458Z,12.43
2023-02-09T04:03:39.776Z,11.10
2023-02-09T04:06:06.561Z,14.52
2023-02-09T04:08:33.693Z,15.45
2023-02-09T04:11:00.633Z,21.48
2023-02-09T04:13:27.348Z,19.25
2023-02-09T04:15:54.394Z,20.08
2023-02-09T04:18:21.162Z,18.75
2023-02-09T04:20:48.319Z,17.30
2023-02-09T04:23:15.264Z,21.83
2023-02-09T04:25:42.061Z,15.45
2023-02-09T04:28:08.798Z,11.48
2023-02-09T04:30:35.506Z,16.00
2023-02-09T04:33:02.235Z,15.18
2023-02-09T04:35:28.910Z,17.42
2023-02-09T04:37:55.566Z,17.30
2023-02-09T04:40:22.240Z,17.88
2023-02-09T04:42:48.915Z,14.32
2023-02-09T04:45:15.604Z,18.55
2023-02-09T04:47:42.324Z,14.65
2023-02-09T04:50:09.234Z,14.70
2023-02-09T04:52:35.910Z,14.30
2023-02-09T04:55:02.708Z,17.38
2023-02-09T04:57:52.303Z,16.95
2023-02-09T05:00:19.206Z,16.02
2023-02-09T05:02:45.839Z,17.27
2023-02-09T05:05:12.507Z,21.10
2023-02-09T05:07:39.129Z,20.42
2023-02-09T05:10:06.393Z,15.05
2023-02-09T05:12:33.085Z,15.10
2023-02-09T05:14:59.783Z,19.40
2023-02-09T05:17:26.429Z,16.20
2023-02-09T05:19:53.162Z,16.23
2023-02-09T05:22:19.927Z,16.15
2023-02-09T05:24:46.557Z,17.98
2023-02-09T05:27:13.233Z,16.45
2023-02-09T05:29:39.879Z,15.90
2023-02-09T05:32:06.657Z,14.35
2023-02-09T05:34:33.315Z,14.70
2023-02-09T05:36:59.980Z,15.00
2023-02-09T05:39:26.603Z,15.52
2023-02-09T05:42:12.131Z,14.25
2023-02-09T05:44:38.854Z,13.68
2023-02-09T05:47:05.631Z,13.55
2023-02-09T05:49:32.317Z,19.17
2023-02-09T05:51:58.977Z,11.93
2023-02-09T05:54:26.124Z,14.15
2023-02-09T05:56:52.762Z,12.38
2023-02-09T05:59:19.602Z,14.32
2023-02-09T06:01:46.600Z,17.02
2023-02-09T06:04:13.283Z,15.85
2023-02-09T06:06:39.952Z,15.55
2023-02-09T06:09:06.823Z,13.68
2023-02-09T06:11:33.529Z,14.77
2023-02-09T06:14:00.228Z,14.30
2023-02-09T06:16:27.552Z,12.45
2023-02-09T06:18:54.274Z,14.15
2023-02-09T06:21:20.959Z,17.73
2023-02-09T06:23:47.972Z,12.48
2023-02-09T06:26:16.815Z,16.77
2023-02-09T06:28:44.244Z,17.00
2023-02-09T06:31:11.458Z,15.70
2023-02-09T06:33:39.078Z,13.05
2023-02-09T06:36:07.480Z,14.07
2023-02-09T06:38:35.735Z,15.35
2023-02-09T06:41:02.775Z,15.85
2023-02-09T06:43:29.582Z,11.98
2023-02-09T06:45:56.884Z,17.60
2023-02-09T06:48:23.651Z,16.38
2023-02-09T06:50:50.386Z,19.48
2023-02-09T06:53:18.529Z,15.40
2023-02-09T06:55:45.290Z,19.90
2023-02-09T06:58:11.999Z,17.67
2023-02-09T07:00:38.644Z,17.67
2023-02-09T07:03:05.517Z,14.70
2023-02-09T07:05:32.279Z,16.77
2023-02-09T07:07:59.233Z,14.48
2023-02-09T07:10:26.530Z,18.88
2023-02-09T07:12:53.362Z,16.95
2023-02-09T07:15:20.090Z,15.43
2023-02-09T07:17:46.840Z,17.92
2023-02-09T07:20:13.807Z,17.35
2023-02-09T07:22:41.048Z,16.30
2023-02-09T07:25:08.122Z,13.43
2023-02-09T07:27:34.898Z,13.88
2023-02-09T07:30:01.613Z,15.32
2023-02-09T07:32:28.378Z,14.70
2023-02-09T07:34:55.162Z,17.13
2023-02-09T07:37:21.900Z,15.70
2023-02-09T07:39:48.888Z,14.40
2023-02-09T07:42:15.628Z,15.15
2023-02-09T07:44:51.183Z,18.13
2023-02-09T07:49:44.484Z,17.77
2023-02-09T07:52:11.479Z,16.17
2023-02-09T07:54:38.143Z,15.55
2023-02-09T07:57:04.833Z,20.65
2023-02-09T08:01:58.657Z,18.55
2023-02-09T08:04:25.360Z,16.67
2023-02-09T08:11:51.823Z,16.52
2023-02-09T08:14:23.642Z,17.10
2023-02-09T08:16:52.308Z,16.20
2023-02-09T08:19:22.919Z,14.52
2023-02-09T08:21:50.070Z,12.95
2023-02-09T08:24:20.415Z,13.23
2023-02-09T08:26:47.133Z,15.50
2023-02-09T08:31:40.796Z,13.38
2023-02-09T08:34:08.083Z,15.15
2023-02-09T08:36:37.566Z,14.65
2023-02-09T08:39:05.255Z,15.23
2023-02-09T08:41:31.908Z,32.20
2023-02-09T08:46:25.582Z,15.07
2023-02-09T08:48:52.904Z,14.30
2023-02-09T08:51:19.768Z,18.73
2023-02-09T08:53:52.190Z,16.70
2023-02-09T08:56:20.423Z,16.45
2023-02-09T08:58:47.742Z,15.05
2023-02-09T09:01:14.806Z,14.73
2023-02-09T09:03:42.197Z,18.63
2023-02-09T09:06:11.520Z,14.70
2023-02-09T09:08:39.955Z,14.18
2023-02-09T09:11:10.089Z,16.05
2023-02-09T09:13:36.764Z,14.82
2023-02-09T09:16:05.186Z,11.73
2023-02-09T09:18:32.143Z,16.75
2023-02-09T09:20:58.784Z,15.52
2023-02-09T09:25:52.178Z,19.77
2023-02-09T09:28:18.987Z,22.52
2023-02-09T09:33:12.558Z,14.88
2023-02-09T09:38:05.873Z,17.50
2023-02-09T09:40:36.947Z,17.83
2023-02-09T09:43:08.689Z,15.18
2023-02-09T09:45:38.581Z,15.73
2023-02-09T09:48:18.261Z,13.85
2023-02-09T09:50:46.263Z,16.73
2023-02-09T09:53:31.675Z,14.80
2023-02-09T09:56:02.678Z,15.55
2023-02-09T09:58:31.127Z,14.55
2023-02-09T10:00:58.056Z,17.23
2023-02-09T10:03:25.213Z,16.92
2023-02-09T10:05:55.542Z,15.13
2023-02-09T10:08:42.055Z,13.68
2023-02-09T10:11:13.142Z,21.02
2023-02-09T10:13:44.486Z,13.45
2023-02-09T10:16:37.997Z,14.00
2023-02-09T10:19:19.632Z,12.15
2023-02-09T10:21:46.819Z,21.60
2023-02-09T10:24:20.815Z,18.20
2023-02-09T10:27:08.091Z,15.80
2023-02-09T10:29:35.643Z,14.82
2023-02-09T10:32:11.190Z,16.65
2023-02-09T10:34:37.826Z,15.18
2023-02-09T10:37:32.357Z,16.20
2023-02-09T10:40:15.730Z,14.77
2023-02-09T10:43:02.623Z,18.60
2023-02-09T10:45:33.061Z,18.48
2023-02-09T10:48:18.810Z,14.90
2023-02-09T10:50:58.639Z,16.83
2023-02-09T10:53:29.720Z,15.55
2023-02-09T10:56:06.659Z,18.92
2023-02-09T10:58:36.396Z,16.08
2023-02-09T11:01:09.433Z,11.35
2023-02-09T11:03:45.868Z,19.70
2023-02-09T11:06:19.919Z,18.77
2023-02-09T11:08:57.705Z,17.27
2023-02-09T11:11:31.385Z,16.73
2023-02-09T11:13:58.890Z,16.02
2023-02-09T11:16:47.253Z,26.20
2023-02-09T11:19:22.410Z,18.42
2023-02-09T11:21:54.742Z,34.83
2023-02-09T11:24:40.062Z,17.80
2023-02-09T11:27:23.789Z,22.85
2023-02-09T11:30:04.865Z,17.25
2023-02-09T11:32:44.055Z,21.05
2023-02-09T11:35:13.257Z,15.75
2023-02-09T11:38:01.516Z,17.42
2023-02-09T11:40:50.827Z,21.55
2023-02-09T11:43:19.822Z,22.67
2023-02-09T11:45:51.358Z,16.55
2023-02-09T11:48:30.108Z,22.48
2023-02-09T11:51:08.033Z,20.70
2023-02-09T11:53:52.926Z,20.60
2023-02-09T11:56:22.942Z,20.17
2023-02-09T11:59:14.265Z,19.98
2023-02-09T12:02:04.633Z,23.92
2023-02-09T12:04:47.224Z,18.08
2023-02-09T12:07:33.243Z,17.55
2023-02-09T12:10:22.048Z,19.95
2023-02-09T12:12:51.345Z,21.77
2023-02-09T12:15:37.306Z,17.00
2023-02-09T12:18:13.886Z,20.73
2023-02-09T12:20:40.531Z,25.05
2023-02-09T12:23:33.351Z,17.05
2023-02-09T12:26:11.776Z,20.17
2023-02-09T12:28:40.490Z,16.70
2023-02-09T12:31:14.862Z,15.75
2023-02-09T12:33:47.807Z,20.85
2023-02-09T12:36:14.423Z,18.17
2023-02-09T12:38:54.684Z,15.00
2023-02-09T12:41:49.391Z,17.02
2023-02-09T12:44:16.404Z,16.20
2023-02-09T12:46:48.581Z,18.40
2023-02-09T12:49:15.809Z,18.42
2023-02-09T12:51:54.614Z,15.35
2023-02-09T12:54:45.268Z,16.40
2023-02-09T12:57:14.759Z,17.92
2023-02-09T12:59:51.169Z,15.93
2023-02-09T13:02:50.223Z,20.80
2023-02-09T13:05:18.321Z,19.02
2023-02-09T13:07:53.226Z,20.13
2023-02-09T13:10:44.817Z,18.92
2023-02-09T13:13:11.450Z,15.75
2023-02-09T13:16:03.011Z,15.55
2023-02-09T13:18:49.303Z,15.77
2023-02-09T13:21:38.630Z,18.15
2023-02-09T13:24:12.851Z,15.38
2023-02-09T13:26:50.650Z,17.75
2023-02-09T13:29:22.151Z,16.95
2023-02-09T13:32:03.573Z,16.52
2023-02-09T13:34:39.244Z,18.63
2023-02-09T13:37:43.544Z,16.75
2023-02-09T13:40:17.857Z,18.52
2023-02-09T13:43:01.068Z,17.55
2023-02-09T13:45:28.105Z,16.05
2023-02-09T13:48:04.096Z,13.63
2023-02-09T13:50:31.903Z,13.93
2023-02-09T13:53:09.562Z,16.00
2023-02-09T13:55:39.875Z,11.35
2023-02-09T13:58:08.825Z,14.52
2023-02-09T14:00:45.197Z,13.85
2023-02-09T14:03:19.509Z,13.48
2023-02-09T14:05:54.142Z,14.60
2023-02-09T14:08:22.330Z,13.40
2023-02-09T14:11:00.735Z,12.90
2023-02-09T14:13:35.087Z,11.95
2023-02-09T14:16:07.227Z,11.57
2023-02-09T14:18:58.009Z,13.77
2023-02-09T14:21:30.922Z,13.40
2023-02-09T14:24:00.319Z,15.27
2023-02-09T14:26:35.664Z,13.57
2023-02-09T14:29:28.286Z,17.27
2023-02-09T14:32:32.059Z,15.27
2023-02-09T14:35:08.072Z,13.30
2023-02-09T14:37:37.272Z,14.02
2023-02-09T14:40:06.787Z,11.40
2023-02-09T14:42:39.194Z,12.48
2023-02-09T14:45:14.696Z,11.63
2023-02-09T14:47:43.953Z,11.23
2023-02-09T14:50:16.696Z,11.88
2023-02-09T14:52:48.059Z,13.95
2023-02-09T14:55:22.471Z,10.80
2023-02-09T14:57:49.351Z,10.18
2023-02-09T15:02:45.624Z,14.35
2023-02-09T15:05:12.638Z,11.57
2023-02-09T15:07:46.952Z,10.88
2023-02-09T15:10:18.483Z,15.52
2023-02-09T15:12:45.378Z,10.75
2023-02-09T15:15:17.349Z,13.45
2023-02-09T15:17:44.083Z,14.75
2023-02-09T15:20:15.071Z,14.88
2023-02-09T15:22:41.860Z,13.23
2023-02-09T15:27:41.382Z,12.02
2023-02-09T15:30:16.724Z,17.45
2023-02-09T15:32:44.597Z,14.75
2023-02-09T15:35:15.629Z,12.95
2023-02-09T15:37:45.211Z,12.20
2023-02-09T15:40:14.874Z,14.70
2023-02-09T15:43:01.186Z,15.80
2023-02-09T15:45:48.582Z,14.30
2023-02-09T15:48:15.436Z,15.35
2023-02-09T15:55:39.720Z,17.08
2023-02-09T15:58:14.448Z,22.30
2023-02-09T16:00:41.298Z,14.55
2023-02-09T16:05:42.533Z,18.75
2023-02-09T16:10:43.434Z,16.42
2023-02-09T16:13:11.635Z,17.02
2023-02-09T16:15:38.314Z,24.02
2023-02-09T16:20:32.030Z,16.50
2023-02-09T16:23:11.696Z,35.00
2023-02-09T16:25:42.195Z,19.67
2023-02-09T16:28:13.077Z,21.52
2023-02-09T16:30:53.801Z,25.88
2023-02-09T16:33:21.983Z,26.58
2023-02-09T16:35:55.890Z,24.40
2023-02-09T16:38:24.183Z,34.80
2023-02-09T16:40:53.219Z,27.88
2023-02-09T16:43:20.423Z,24.83
2023-02-09T16:46:02.392Z,26.98
2023-02-09T16:48:32.177Z,27.27
2023-02-09T16:50:59.189Z,29.92
2023-02-09T16:53:27.022Z,25.42
2023-02-09T16:55:53.847Z,26.30
2023-02-09T16:58:20.805Z,32.88
2023-02-09T17:00:47.627Z,31.80
2023-02-09T17:03:19.725Z,29.52
2023-02-09T17:05:52.598Z,32.70
2023-02-09T17:08:28.062Z,31.90
2023-02-09T17:10:56.447Z,31.58
2023-02-09T17:13:23.496Z,34.78
2023-02-09T17:15:56.546Z,37.28
2023-02-09T17:18:27.255Z,29.13
2023-02-09T17:20:57.224Z,38.35
2023-02-09T17:23:26.319Z,37.28
2023-02-09T17:25:55.158Z,40.40
2023-02-09T17:28:26.363Z,36.53
2023-02-09T17:30:57.472Z,28.67
2023-02-09T17:33:29.735Z,26.50
2023-02-09T17:36:24.317Z,23.17
2023-02-09T17:38:45.305Z,20.50
2023-02-09T17:41:44.782Z,20.60
2023-02-09T17:44:24.196Z,25.05
2023-02-09T17:46:55.870Z,25.00
2023-02-09T17:49:23.142Z,23.92
2023-02-09T17:51:49.931Z,20.63
2023-02-09T17:56:45.651Z,18.52
2023-02-09T17:59:13.313Z,26.17
2023-02-09T18:01:45.811Z,21.42
2023-02-09T18:04:21.921Z,20.30
2023-02-09T18:06:48.979Z,25.00
2023-02-09T18:09:15.940Z,22.30
2023-02-09T18:11:45.421Z,23.73
2023-02-09T18:14:13.483Z,18.98
2023-02-09T18:16:41.290Z,28.85
2023-02-09T18:19:11.804Z,21.23
2023-02-09T18:21:39.766Z,21.88
2023-02-09T18:24:06.923Z,20.70
2023-02-09T18:26:34.039Z,24.17
2023-02-09T18:29:00.818Z,23.75
2023-02-09T18:31:27.513Z,21.50
2023-02-09T18:36:20.999Z,21.05
2023-02-09T18:38:49.063Z,20.95
2023-02-09T18:41:15.713Z,21.75
2023-02-09T18:46:13.821Z,21.13
2023-02-09T18:48:40.583Z,19.80
2023-02-09T18:53:34.397Z,19.50
2023-02-09T18:58:27.832Z,20.10
2023-02-09T19:03:21.739Z,18.90
2023-02-09T19:05:48.817Z,20.85
2023-02-09T19:08:16.138Z,19.05
2023-02-09T19:10:44.618Z,18.65
2023-02-09T19:13:11.645Z,16.70
2023-02-09T19:15:39.028Z,16.85
2023-02-09T19:18:06.109Z,16.25
2023-02-09T19:20:34.182Z,16.58
2023-02-09T19:23:02.380Z,20.60
2023-02-09T19:25:30.000Z,18.55
2023-02-09T19:27:56.931Z,23.00
2023-02-09T19:30:28.482Z,16.40
2023-02-09T19:33:00.037Z,18.30
2023-02-09T19:35:29.101Z,21.17
2023-02-09T19:37:57.720Z,19.00
2023-02-09T19:40:35.810Z,17.88
2023-02-09T19:43:03.903Z,20.58
2023-02-09T19:45:36.186Z,15.82
2023-02-09T19:48:05.348Z,15.13
2023-02-09T19:50:32.505Z,21.65
2023-02-09T19:52:59.292Z,21.27
2023-02-09T19:55:26.000Z,19.27
2023-02-09T20:00:19.384Z,16.42
2023-02-09T20:02:47.270Z,16.27
2023-02-09T20:05:15.989Z,17.70
2023-02-09T20:07:43.467Z,16.70
2023-02-09T20:10:11.006Z,14.18
2023-02-09T20:12:37.681Z,17.13
2023-02-09T20:17:31.020Z,23.60
2023-02-09T20:22:24.273Z,20.30
2023-02-09T20:27:18.948Z,19.58
2023-02-09T20:29:45.619Z,17.10
2023-02-09T20:34:39.033Z,17.17
2023-02-09T20:39:32.333Z,17.38
2023-02-09T20:45:03.337Z,23.63
2023-02-09T20:47:30.142Z,18.25
2023-02-09T20:49:59.803Z,15.52
2023-02-09T20:52:30.418Z,14.27
2023-02-09T20:54:57.792Z,15.85
2023-02-09T20:57:29.378Z,14.25
2023-02-09T20:59:57.761Z,13.65
2023-02-09T21:02:25.259Z,15.10
2023-02-09T21:04:54.927Z,15.93
2023-02-09T21:07:21.601Z,15.80
2023-02-09T21:12:14.998Z,16.73
2023-02-09T21:17:12.234Z,14.70
2023-02-09T21:19:39.444Z,14.63
2023-02-09T21:22:06.538Z,16.45
2023-02-09T21:24:33.565Z,12.88
2023-02-09T21:27:03.938Z,17.35
2023-02-09T21:29:30.616Z,15.02
2023-02-09T21:34:26.936Z,16.50
2023-02-09T21:39:20.307Z,21.40
2023-02-09T21:42:05.875Z,17.55
2023-02-09T21:44:32.650Z,20.95
2023-02-09T21:47:00.449Z,14.63
2023-02-09T21:49:27.175Z,18.02
2023-02-09T21:51:53.883Z,16.98
2023-02-09T21:54:20.529Z,14.60
2023-02-09T21:59:14.010Z,15.73
2023-02-09T22:01:42.408Z,17.60
2023-02-09T22:04:09.412Z,17.65
2023-02-09T22:06:36.230Z,13.55
2023-02-09T22:09:06.067Z,19.65
2023-02-09T22:11:32.796Z,15.32
2023-02-09T22:13:59.591Z,19.73
2023-02-09T22:16:26.369Z,18.48
2023-02-09T22:18:53.061Z,15.15
2023-02-09T22:21:19.899Z,24.02
2023-02-09T22:23:46.678Z,19.23
2023-02-09T22:26:14.200Z,19.00
2023-02-09T22:28:41.834Z,14.35
2023-02-09T22:31:11.469Z,19.38
2023-02-09T22:33:38.331Z,18.13
2023-02-09T22:36:06.990Z,17.77
2023-02-09T22:38:33.796Z,18.23
2023-02-09T22:41:21.088Z,14.70
2023-02-09T22:44:00.775Z,15.82
2023-02-09T22:46:36.926Z,23.25
2023-02-09T22:49:18.448Z,16.90
2023-02-09T22:51:46.352Z,16.33
2023-02-09T22:54:15.298Z,18.63
2023-02-09T22:56:42.188Z,13.40
2023-02-09T22:59:10.753Z,14.88
2023-02-09T23:01:37.472Z,17.95
2023-02-09T23:04:04.446Z,17.13
2023-02-09T23:06:31.220Z,17.80
2023-02-09T23:09:00.563Z,19.27
2023-02-09T23:11:28.984Z,17.23
2023-02-09T23:14:09.550Z,18.42
2023-02-09T23:16:38.307Z,15.13
2023-02-09T23:19:08.249Z,15.65
2023-02-09T23:21:37.948Z,20.92
2023-02-09T23:24:05.214Z,15.23
2023-02-09T23:26:32.249Z,16.50
2023-02-09T23:29:01.029Z,18.02
2023-02-09T23:31:27.863Z,21.40
2023-02-09T23:33:54.748Z,20.38
2023-02-09T23:36:26.924Z,20.88
2023-02-09T23:39:00.172Z,15.95
2023-02-09T23:41:27.744Z,14.85
2023-02-09T23:43:55.119Z,19.60
2023-02-09T23:46:28.579Z,16.42
2023-02-09T23:48:55.959Z,21.75
2023-02-09T23:51:28.485Z,18.27
2023-02-09T23:53:57.755Z,17.88
2023-02-09T23:56:25.777Z,19.02
2023-02-09T23:58:53.352Z,15.65
